sensor_id;sensor_type;location;lat;lon;timestamp;temperature;humidity
2409;DHT22;8463;48.094;7.970;2023-05-15T00:01:43;12.70;16.30
2409;DHT22;8463;48.094;7.970;2023-05-15T00:04:09;12.70;16.30
2409;DHT22;8463;48.094;7.970;2023-05-15T00:06:35;12.20;15.90
2409;DHT22;8463;48.094;7.970;2023-05-15T00:09:02;12.20;16.80
2409;DHT22;8463;48.094;7.970;2023-05-15T00:11:31;12.00;25.90
2409;DHT22;8463;48.094;7.970;2023-05-15T00:16:23;12.30;25.20
2409;DHT22;8463;48.094;7.970;2023-05-15T00:18:51;12.10;20.70
2409;DHT22;8463;48.094;7.970;2023-05-15T00:21:16;12.20;22.90
2409;DHT22;8463;48.094;7.970;2023-05-15T00:23:42;12.20;23.60
2409;DHT22;8463;48.094;7.970;2023-05-15T00:26:08;12.30;23.40
2409;DHT22;8463;48.094;7.970;2023-05-15T00:28:36;12.30;23.20
2409;DHT22;8463;48.094;7.970;2023-05-15T00:31:02;12.30;23.20
2409;DHT22;8463;48.094;7.970;2023-05-15T00:35:54;12.40;21.90
2409;DHT22;8463;48.094;7.970;2023-05-15T00:38:19;12.50;19.70
2409;DHT22;8463;48.094;7.970;2023-05-15T00:40:45;12.50;19.60
2409;DHT22;8463;48.094;7.970;2023-05-15T00:43:15;12.50;19.60
2409;DHT22;8463;48.094;7.970;2023-05-15T00:45:41;12.60;19.70
2409;DHT22;8463;48.094;7.970;2023-05-15T00:48:08;12.60;19.70
2409;DHT22;8463;48.094;7.970;2023-05-15T00:50:34;12.60;20.10
2409;DHT22;8463;48.094;7.970;2023-05-15T00:53:01;12.60;18.70
2409;DHT22;8463;48.094;7.970;2023-05-15T00:55:27;12.60;19.00
2409;DHT22;8463;48.094;7.970;2023-05-15T00:57:55;12.50;17.90
2409;DHT22;8463;48.094;7.970;2023-05-15T01:00:23;12.50;17.60
2409;DHT22;8463;48.094;7.970;2023-05-15T01:02:49;12.50;17.40
2409;DHT22;8463;48.094;7.970;2023-05-15T01:05:14;12.50;16.20
2409;DHT22;8463;48.094;7.970;2023-05-15T01:07:48;12.40;15.70
2409;DHT22;8463;48.094;7.970;2023-05-15T01:10:17;12.40;16.40
2409;DHT22;8463;48.094;7.970;2023-05-15T01:12:45;12.50;15.80
2409;DHT22;8463;48.094;7.970;2023-05-15T01:15:11;12.50;14.40
2409;DHT22;8463;48.094;7.970;2023-05-15T01:17:39;12.50;13.90
2409;DHT22;8463;48.094;7.970;2023-05-15T01:20:07;12.50;13.30
2409;DHT22;8463;48.094;7.970;2023-05-15T01:28:06;12.50;14.60
2409;DHT22;8463;48.094;7.970;2023-05-15T01:30:35;12.50;14.70
2409;DHT22;8463;48.094;7.970;2023-05-15T01:33:25;12.40;14.50
2409;DHT22;8463;48.094;7.970;2023-05-15T01:36:00;12.40;15.10
2409;DHT22;8463;48.094;7.970;2023-05-15T01:41:22;12.40;16.40
2409;DHT22;8463;48.094;7.970;2023-05-15T01:43:56;12.40;16.80
2409;DHT22;8463;48.094;7.970;2023-05-15T01:46:24;12.40;17.30
2409;DHT22;8463;48.094;7.970;2023-05-15T01:48:54;12.50;16.90
2409;DHT22;8463;48.094;7.970;2023-05-15T01:51:24;12.50;16.60
2409;DHT22;8463;48.094;7.970;2023-05-15T01:53:52;12.50;15.40
2409;DHT22;8463;48.094;7.970;2023-05-15T01:56:19;12.50;15.80
2409;DHT22;8463;48.094;7.970;2023-05-15T01:58:47;12.50;15.30
2409;DHT22;8463;48.094;7.970;2023-05-15T02:01:15;12.20;11.60
2409;DHT22;8463;48.094;7.970;2023-05-15T02:03:44;12.10;15.90
2409;DHT22;8463;48.094;7.970;2023-05-15T02:06:10;12.00;17.50
2409;DHT22;8463;48.094;7.970;2023-05-15T02:08:37;12.00;17.60
2409;DHT22;8463;48.094;7.970;2023-05-15T02:11:04;11.90;18.00
2409;DHT22;8463;48.094;7.970;2023-05-15T02:13:30;12.10;18.10
2409;DHT22;8463;48.094;7.970;2023-05-15T02:15:56;12.10;17.30
2409;DHT22;8463;48.094;7.970;2023-05-15T02:18:22;12.20;16.10
2409;DHT22;8463;48.094;7.970;2023-05-15T02:20:50;12.20;15.50
2409;DHT22;8463;48.094;7.970;2023-05-15T02:23:16;12.20;15.50
2409;DHT22;8463;48.094;7.970;2023-05-15T02:25:49;12.20;15.30
2409;DHT22;8463;48.094;7.970;2023-05-15T02:28:46;12.20;15.60
2409;DHT22;8463;48.094;7.970;2023-05-15T02:36:39;12.30;15.10
2409;DHT22;8463;48.094;7.970;2023-05-15T02:39:06;12.30;14.80
2409;DHT22;8463;48.094;7.970;2023-05-15T02:41:37;12.20;15.10
2409;DHT22;8463;48.094;7.970;2023-05-15T02:44:04;12.20;15.50
2409;DHT22;8463;48.094;7.970;2023-05-15T02:46:33;12.10;15.60
2409;DHT22;8463;48.094;7.970;2023-05-15T02:49:02;12.20;16.10
2409;DHT22;8463;48.094;7.970;2023-05-15T02:51:29;12.10;15.50
2409;DHT22;8463;48.094;7.970;2023-05-15T02:53:59;12.10;16.10
2409;DHT22;8463;48.094;7.970;2023-05-15T02:56:26;12.10;16.50
2409;DHT22;8463;48.094;7.970;2023-05-15T02:58:53;12.10;16.60
2409;DHT22;8463;48.094;7.970;2023-05-15T03:01:19;12.00;16.70
2409;DHT22;8463;48.094;7.970;2023-05-15T03:06:11;12.10;16.60
2409;DHT22;8463;48.094;7.970;2023-05-15T03:08:41;12.10;15.90
2409;DHT22;8463;48.094;7.970;2023-05-15T03:15:58;12.00;13.00
2409;DHT22;8463;48.094;7.970;2023-05-15T03:18:24;11.90;12.90
2409;DHT22;8463;48.094;7.970;2023-05-15T03:20:51;11.80;14.20
2409;DHT22;8463;48.094;7.970;2023-05-15T03:23:17;11.90;14.40
2409;DHT22;8463;48.094;7.970;2023-05-15T03:25:43;11.80;13.50
2409;DHT22;8463;48.094;7.970;2023-05-15T03:28:08;11.80;13.80
2409;DHT22;8463;48.094;7.970;2023-05-15T03:30:34;11.80;13.10
2409;DHT22;8463;48.094;7.970;2023-05-15T03:33:00;11.70;12.00
2409;DHT22;8463;48.094;7.970;2023-05-15T03:35:28;11.50;13.40
2409;DHT22;8463;48.094;7.970;2023-05-15T03:37:55;11.40;13.90
2409;DHT22;8463;48.094;7.970;2023-05-15T03:40:20;11.40;14.90
2409;DHT22;8463;48.094;7.970;2023-05-15T03:42:46;11.40;15.20
2409;DHT22;8463;48.094;7.970;2023-05-15T03:45:12;11.60;15.90
2409;DHT22;8463;48.094;7.970;2023-05-15T03:47:37;11.50;15.40
2409;DHT22;8463;48.094;7.970;2023-05-15T03:50:06;11.50;16.00
2409;DHT22;8463;48.094;7.970;2023-05-15T03:52:32;11.50;14.60
2409;DHT22;8463;48.094;7.970;2023-05-15T03:54:58;11.50;12.40
2409;DHT22;8463;48.094;7.970;2023-05-15T03:57:23;11.50;12.90
2409;DHT22;8463;48.094;7.970;2023-05-15T03:59:49;11.50;13.50
2409;DHT22;8463;48.094;7.970;2023-05-15T04:02:15;11.50;13.60
2409;DHT22;8463;48.094;7.970;2023-05-15T04:04:41;11.50;13.30
2409;DHT22;8463;48.094;7.970;2023-05-15T04:07:06;11.50;13.70
2409;DHT22;8463;48.094;7.970;2023-05-15T04:09:34;11.50;14.20
2409;DHT22;8463;48.094;7.970;2023-05-15T04:12:00;11.50;13.00
2409;DHT22;8463;48.094;7.970;2023-05-15T04:14:25;11.40;13.40
2409;DHT22;8463;48.094;7.970;2023-05-15T04:16:51;11.30;14.10
2409;DHT22;8463;48.094;7.970;2023-05-15T04:19:17;11.30;15.30
2409;DHT22;8463;48.094;7.970;2023-05-15T04:21:45;11.30;15.10
2409;DHT22;8463;48.094;7.970;2023-05-15T04:24:11;11.30;15.10
2409;DHT22;8463;48.094;7.970;2023-05-15T04:26:37;11.30;15.80
2409;DHT22;8463;48.094;7.970;2023-05-15T04:29:02;11.40;15.50
2409;DHT22;8463;48.094;7.970;2023-05-15T04:31:28;11.40;16.00
2409;DHT22;8463;48.094;7.970;2023-05-15T04:33:54;11.50;16.50
2409;DHT22;8463;48.094;7.970;2023-05-15T04:36:20;11.60;15.80
2409;DHT22;8463;48.094;7.970;2023-05-15T04:38:46;11.50;16.00
2409;DHT22;8463;48.094;7.970;2023-05-15T04:41:13;11.50;16.10
2409;DHT22;8463;48.094;7.970;2023-05-15T04:43:39;11.60;15.10
2409;DHT22;8463;48.094;7.970;2023-05-15T04:46:06;11.60;15.50
2409;DHT22;8463;48.094;7.970;2023-05-15T04:48:32;11.60;14.40
2409;DHT22;8463;48.094;7.970;2023-05-15T04:50:59;11.60;14.80
2409;DHT22;8463;48.094;7.970;2023-05-15T04:53:25;11.60;14.60
2409;DHT22;8463;48.094;7.970;2023-05-15T04:55:51;11.60;15.00
2409;DHT22;8463;48.094;7.970;2023-05-15T04:58:20;11.60;15.50
2409;DHT22;8463;48.094;7.970;2023-05-15T05:00:45;11.60;15.60
2409;DHT22;8463;48.094;7.970;2023-05-15T05:03:11;12.10;28.70
2409;DHT22;8463;48.094;7.970;2023-05-15T05:05:36;12.50;33.60
2409;DHT22;8463;48.094;7.970;2023-05-15T05:08:02;12.60;34.00
2409;DHT22;8463;48.094;7.970;2023-05-15T05:10:30;12.60;16.60
2409;DHT22;8463;48.094;7.970;2023-05-15T05:12:56;12.50;16.20
2409;DHT22;8463;48.094;7.970;2023-05-15T05:15:21;12.50;16.20
2409;DHT22;8463;48.094;7.970;2023-05-15T05:17:47;12.30;12.80
2409;DHT22;8463;48.094;7.970;2023-05-15T05:20:13;12.30;13.10
2409;DHT22;8463;48.094;7.970;2023-05-15T05:22:38;12.20;13.20
2409;DHT22;8463;48.094;7.970;2023-05-15T05:25:05;12.20;13.50
2409;DHT22;8463;48.094;7.970;2023-05-15T05:27:37;12.20;14.30
2409;DHT22;8463;48.094;7.970;2023-05-15T05:30:03;12.20;14.70
2409;DHT22;8463;48.094;7.970;2023-05-15T05:32:29;12.30;14.50
2409;DHT22;8463;48.094;7.970;2023-05-15T05:34:55;12.30;15.40
2409;DHT22;8463;48.094;7.970;2023-05-15T05:37:20;12.30;15.20
2409;DHT22;8463;48.094;7.970;2023-05-15T05:39:46;12.30;16.60
2409;DHT22;8463;48.094;7.970;2023-05-15T05:42:12;12.40;14.20
2409;DHT22;8463;48.094;7.970;2023-05-15T05:44:39;12.40;14.60
2409;DHT22;8463;48.094;7.970;2023-05-15T05:47:05;12.40;14.30
2409;DHT22;8463;48.094;7.970;2023-05-15T05:49:30;12.50;13.90
2409;DHT22;8463;48.094;7.970;2023-05-15T05:52:06;12.40;14.30
2409;DHT22;8463;48.094;7.970;2023-05-15T05:54:35;12.40;13.40
2409;DHT22;8463;48.094;7.970;2023-05-15T05:57:01;12.30;12.90
2409;DHT22;8463;48.094;7.970;2023-05-15T05:59:27;12.20;15.50
2409;DHT22;8463;48.094;7.970;2023-05-15T06:01:54;12.20;15.80
2409;DHT22;8463;48.094;7.970;2023-05-15T06:04:25;12.20;16.30
2409;DHT22;8463;48.094;7.970;2023-05-15T06:06:51;12.20;16.70
2409;DHT22;8463;48.094;7.970;2023-05-15T06:09:19;12.20;16.70
2409;DHT22;8463;48.094;7.970;2023-05-15T06:11:44;12.30;18.10
2409;DHT22;8463;48.094;7.970;2023-05-15T06:14:10;12.30;18.60
2409;DHT22;8463;48.094;7.970;2023-05-15T06:16:36;12.40;19.40
2409;DHT22;8463;48.094;7.970;2023-05-15T06:19:02;12.60;18.10
2409;DHT22;8463;48.094;7.970;2023-05-15T06:21:33;12.60;18.60
2409;DHT22;8463;48.094;7.970;2023-05-15T06:23:59;12.70;15.80
2409;DHT22;8463;48.094;7.970;2023-05-15T06:26:24;12.80;15.30
2409;DHT22;8463;48.094;7.970;2023-05-15T06:28:50;12.90;16.00
2409;DHT22;8463;48.094;7.970;2023-05-15T06:31:19;12.90;16.50
2409;DHT22;8463;48.094;7.970;2023-05-15T06:33:45;13.00;15.90
2409;DHT22;8463;48.094;7.970;2023-05-15T06:36:10;13.10;14.60
2409;DHT22;8463;48.094;7.970;2023-05-15T06:38:36;13.10;13.40
2409;DHT22;8463;48.094;7.970;2023-05-15T06:41:02;13.30;12.60
2409;DHT22;8463;48.094;7.970;2023-05-15T06:43:27;13.30;12.90
2409;DHT22;8463;48.094;7.970;2023-05-15T06:45:55;13.30;12.90
2409;DHT22;8463;48.094;7.970;2023-05-15T06:48:21;13.40;12.50
2409;DHT22;8463;48.094;7.970;2023-05-15T06:50:47;13.40;12.90
2409;DHT22;8463;48.094;7.970;2023-05-15T06:53:13;13.40;12.20
2409;DHT22;8463;48.094;7.970;2023-05-15T06:55:38;13.50;12.60
2409;DHT22;8463;48.094;7.970;2023-05-15T06:58:07;13.40;12.50
2409;DHT22;8463;48.094;7.970;2023-05-15T07:00:33;13.50;11.80
2409;DHT22;8463;48.094;7.970;2023-05-15T07:02:59;13.50;12.20
2409;DHT22;8463;48.094;7.970;2023-05-15T07:05:24;13.60;11.40
2409;DHT22;8463;48.094;7.970;2023-05-15T07:07:54;13.60;10.70
2409;DHT22;8463;48.094;7.970;2023-05-15T07:10:20;13.70;11.00
2409;DHT22;8463;48.094;7.970;2023-05-15T07:12:45;13.80;9.50
2409;DHT22;8463;48.094;7.970;2023-05-15T07:15:11;13.80;9.30
2409;DHT22;8463;48.094;7.970;2023-05-15T07:17:37;13.90;8.00
2409;DHT22;8463;48.094;7.970;2023-05-15T07:20:03;14.10;8.50
2409;DHT22;8463;48.094;7.970;2023-05-15T07:22:30;14.10;8.90
2409;DHT22;8463;48.094;7.970;2023-05-15T07:24:56;14.30;1.00
2409;DHT22;8463;48.094;7.970;2023-05-15T07:27:22;14.20;1.00
2409;DHT22;8463;48.094;7.970;2023-05-15T07:29:48;14.20;1.00
2409;DHT22;8463;48.094;7.970;2023-05-15T07:32:14;14.20;1.00
2409;DHT22;8463;48.094;7.970;2023-05-15T07:34:39;14.30;1.00
2409;DHT22;8463;48.094;7.970;2023-05-15T07:37:09;14.30;1.00
2409;DHT22;8463;48.094;7.970;2023-05-15T07:39:34;14.50;1.00
2409;DHT22;8463;48.094;7.970;2023-05-15T07:42:00;14.60;1.00
2409;DHT22;8463;48.094;7.970;2023-05-15T07:44:26;14.70;1.00
2409;DHT22;8463;48.094;7.970;2023-05-15T07:46:52;14.90;1.00
2409;DHT22;8463;48.094;7.970;2023-05-15T07:49:17;15.00;1.00
2409;DHT22;8463;48.094;7.970;2023-05-15T07:51:45;15.00;1.00
2409;DHT22;8463;48.094;7.970;2023-05-15T07:54:11;14.90;1.00
2409;DHT22;8463;48.094;7.970;2023-05-15T07:56:37;14.90;1.00
2409;DHT22;8463;48.094;7.970;2023-05-15T07:59:03;14.80;1.00
2409;DHT22;8463;48.094;7.970;2023-05-15T08:01:29;14.60;1.00
2409;DHT22;8463;48.094;7.970;2023-05-15T08:03:54;14.60;1.00
2409;DHT22;8463;48.094;7.970;2023-05-15T08:06:20;14.60;1.00
2409;DHT22;8463;48.094;7.970;2023-05-15T08:08:47;15.00;1.00
2409;DHT22;8463;48.094;7.970;2023-05-15T08:11:13;15.00;1.00
2409;DHT22;8463;48.094;7.970;2023-05-15T08:13:39;15.20;1.00
2409;DHT22;8463;48.094;7.970;2023-05-15T08:16:05;15.00;1.00
2409;DHT22;8463;48.094;7.970;2023-05-15T08:18:31;14.90;1.00
2409;DHT22;8463;48.094;7.970;2023-05-15T08:20:56;14.90;1.00
2409;DHT22;8463;48.094;7.970;2023-05-15T08:23:22;14.80;1.00
2409;DHT22;8463;48.094;7.970;2023-05-15T08:25:48;14.80;1.00
2409;DHT22;8463;48.094;7.970;2023-05-15T08:28:13;14.80;1.00
2409;DHT22;8463;48.094;7.970;2023-05-15T08:30:39;14.80;1.00
2409;DHT22;8463;48.094;7.970;2023-05-15T08:33:05;14.90;1.00
2409;DHT22;8463;48.094;7.970;2023-05-15T08:35:31;15.10;1.00
2409;DHT22;8463;48.094;7.970;2023-05-15T08:37:57;15.50;1.00
2409;DHT22;8463;48.094;7.970;2023-05-15T08:40:23;15.60;1.00
2409;DHT22;8463;48.094;7.970;2023-05-15T08:42:56;15.70;1.00
2409;DHT22;8463;48.094;7.970;2023-05-15T08:45:25;15.80;1.00
2409;DHT22;8463;48.094;7.970;2023-05-15T08:47:50;15.80;1.00
2409;DHT22;8463;48.094;7.970;2023-05-15T08:50:16;15.60;1.00
2409;DHT22;8463;48.094;7.970;2023-05-15T08:52:44;15.40;1.00
2409;DHT22;8463;48.094;7.970;2023-05-15T08:55:14;15.30;1.00
2409;DHT22;8463;48.094;7.970;2023-05-15T08:57:40;15.50;1.00
2409;DHT22;8463;48.094;7.970;2023-05-15T09:00:06;15.40;1.00
2409;DHT22;8463;48.094;7.970;2023-05-15T09:02:41;15.40;1.00
2409;DHT22;8463;48.094;7.970;2023-05-15T09:05:07;15.30;1.00
2409;DHT22;8463;48.094;7.970;2023-05-15T09:07:34;15.30;1.00
2409;DHT22;8463;48.094;7.970;2023-05-15T09:10:03;15.30;1.00
2409;DHT22;8463;48.094;7.970;2023-05-15T09:12:32;15.50;1.00
2409;DHT22;8463;48.094;7.970;2023-05-15T09:15:11;15.50;1.00
2409;DHT22;8463;48.094;7.970;2023-05-15T09:17:37;15.70;1.00
2409;DHT22;8463;48.094;7.970;2023-05-15T09:20:04;15.40;1.00
2409;DHT22;8463;48.094;7.970;2023-05-15T09:22:33;15.40;1.00
2409;DHT22;8463;48.094;7.970;2023-05-15T09:24:59;15.40;1.00
2409;DHT22;8463;48.094;7.970;2023-05-15T09:27:27;15.60;1.00
2409;DHT22;8463;48.094;7.970;2023-05-15T09:29:53;15.70;1.00
2409;DHT22;8463;48.094;7.970;2023-05-15T09:34:47;16.10;1.00
2409;DHT22;8463;48.094;7.970;2023-05-15T09:37:38;16.10;1.00
2409;DHT22;8463;48.094;7.970;2023-05-15T09:40:10;16.30;1.00
2409;DHT22;8463;48.094;7.970;2023-05-15T09:42:39;16.40;1.00
2409;DHT22;8463;48.094;7.970;2023-05-15T09:45:18;16.30;1.00
2409;DHT22;8463;48.094;7.970;2023-05-15T09:47:45;16.60;1.00
2409;DHT22;8463;48.094;7.970;2023-05-15T09:50:11;17.00;1.00
2409;DHT22;8463;48.094;7.970;2023-05-15T09:52:37;17.00;1.00
2409;DHT22;8463;48.094;7.970;2023-05-15T09:55:04;17.20;1.00
2409;DHT22;8463;48.094;7.970;2023-05-15T09:57:30;17.40;1.00
2409;DHT22;8463;48.094;7.970;2023-05-15T10:00:00;17.30;1.00
2409;DHT22;8463;48.094;7.970;2023-05-15T10:02:34;17.10;1.00
2409;DHT22;8463;48.094;7.970;2023-05-15T10:05:00;17.10;1.00
2409;DHT22;8463;48.094;7.970;2023-05-15T10:07:37;17.00;1.00
2409;DHT22;8463;48.094;7.970;2023-05-15T10:10:06;16.90;1.00
2409;DHT22;8463;48.094;7.970;2023-05-15T10:12:33;17.00;1.00
2409;DHT22;8463;48.094;7.970;2023-05-15T10:15:02;17.10;1.00
2409;DHT22;8463;48.094;7.970;2023-05-15T10:17:33;17.30;1.00
2409;DHT22;8463;48.094;7.970;2023-05-15T10:20:01;17.30;1.00
2409;DHT22;8463;48.094;7.970;2023-05-15T10:22:31;17.50;1.00
2409;DHT22;8463;48.094;7.970;2023-05-15T10:25:25;17.90;1.00
2409;DHT22;8463;48.094;7.970;2023-05-15T10:27:53;17.90;1.00
2409;DHT22;8463;48.094;7.970;2023-05-15T10:30:19;17.80;1.00
2409;DHT22;8463;48.094;7.970;2023-05-15T10:32:48;18.40;1.00
2409;DHT22;8463;48.094;7.970;2023-05-15T10:35:17;18.80;1.00
2409;DHT22;8463;48.094;7.970;2023-05-15T10:37:45;18.60;1.00
2409;DHT22;8463;48.094;7.970;2023-05-15T10:40:12;18.50;1.00
2409;DHT22;8463;48.094;7.970;2023-05-15T10:42:41;18.50;1.00
2409;DHT22;8463;48.094;7.970;2023-05-15T10:45:08;18.10;1.00
2409;DHT22;8463;48.094;7.970;2023-05-15T10:47:35;17.80;1.00
2409;DHT22;8463;48.094;7.970;2023-05-15T10:50:03;17.90;1.00
2409;DHT22;8463;48.094;7.970;2023-05-15T10:52:36;17.90;1.00
2409;DHT22;8463;48.094;7.970;2023-05-15T10:55:05;18.20;1.00
2409;DHT22;8463;48.094;7.970;2023-05-15T10:57:32;18.30;1.00
2409;DHT22;8463;48.094;7.970;2023-05-15T10:59:58;18.60;1.00
2409;DHT22;8463;48.094;7.970;2023-05-15T11:02:27;18.70;1.00
2409;DHT22;8463;48.094;7.970;2023-05-15T11:05:02;18.40;1.00
2409;DHT22;8463;48.094;7.970;2023-05-15T11:07:30;18.40;1.00
2409;DHT22;8463;48.094;7.970;2023-05-15T11:09:56;18.60;1.00
2409;DHT22;8463;48.094;7.970;2023-05-15T11:12:22;18.50;1.00
2409;DHT22;8463;48.094;7.970;2023-05-15T11:17:22;19.10;1.00
2409;DHT22;8463;48.094;7.970;2023-05-15T11:22:31;19.00;1.00
2409;DHT22;8463;48.094;7.970;2023-05-15T11:25:09;19.00;1.00
2409;DHT22;8463;48.094;7.970;2023-05-15T11:27:41;18.80;1.00
2409;DHT22;8463;48.094;7.970;2023-05-15T11:30:17;18.80;1.00
2409;DHT22;8463;48.094;7.970;2023-05-15T11:37:46;19.00;1.00
2409;DHT22;8463;48.094;7.970;2023-05-15T11:40:30;18.90;1.00
2409;DHT22;8463;48.094;7.970;2023-05-15T11:43:04;18.90;1.00
2409;DHT22;8463;48.094;7.970;2023-05-15T11:45:35;19.00;1.00
2409;DHT22;8463;48.094;7.970;2023-05-15T11:48:12;19.30;1.00
2409;DHT22;8463;48.094;7.970;2023-05-15T11:50:42;18.80;1.00
2409;DHT22;8463;48.094;7.970;2023-05-15T11:53:09;18.50;1.00
2409;DHT22;8463;48.094;7.970;2023-05-15T11:55:39;18.40;1.00
2409;DHT22;8463;48.094;7.970;2023-05-15T11:58:16;18.40;1.00
2409;DHT22;8463;48.094;7.970;2023-05-15T12:00:44;18.90;1.00
2409;DHT22;8463;48.094;7.970;2023-05-15T12:03:17;19.00;1.00
2409;DHT22;8463;48.094;7.970;2023-05-15T12:05:44;19.10;1.00
2409;DHT22;8463;48.094;7.970;2023-05-15T12:08:12;18.80;1.00
2409;DHT22;8463;48.094;7.970;2023-05-15T12:10:42;19.30;1.00
2409;DHT22;8463;48.094;7.970;2023-05-15T12:13:18;19.90;1.00
2409;DHT22;8463;48.094;7.970;2023-05-15T12:15:45;20.10;1.00
2409;DHT22;8463;48.094;7.970;2023-05-15T12:18:11;20.10;1.00
2409;DHT22;8463;48.094;7.970;2023-05-15T12:20:40;20.50;1.00
2409;DHT22;8463;48.094;7.970;2023-05-15T12:23:15;20.80;1.00
2409;DHT22;8463;48.094;7.970;2023-05-15T12:25:43;21.00;1.00
2409;DHT22;8463;48.094;7.970;2023-05-15T12:28:16;20.40;1.00
2409;DHT22;8463;48.094;7.970;2023-05-15T12:30:42;19.90;1.00
2409;DHT22;8463;48.094;7.970;2023-05-15T12:33:09;19.90;1.00
2409;DHT22;8463;48.094;7.970;2023-05-15T12:35:43;20.10;1.00
2409;DHT22;8463;48.094;7.970;2023-05-15T12:38:14;19.90;1.00
2409;DHT22;8463;48.094;7.970;2023-05-15T12:40:43;19.90;1.00
2409;DHT22;8463;48.094;7.970;2023-05-15T12:43:16;19.80;1.00
2409;DHT22;8463;48.094;7.970;2023-05-15T12:45:42;19.70;1.00
2409;DHT22;8463;48.094;7.970;2023-05-15T12:48:13;19.90;1.00
2409;DHT22;8463;48.094;7.970;2023-05-15T12:50:39;20.10;1.00
2409;DHT22;8463;48.094;7.970;2023-05-15T12:53:05;20.40;1.00
2409;DHT22;8463;48.094;7.970;2023-05-15T12:55:32;20.70;1.00
2409;DHT22;8463;48.094;7.970;2023-05-15T12:58:06;20.80;1.00
2409;DHT22;8463;48.094;7.970;2023-05-15T13:00:38;21.20;1.00
2409;DHT22;8463;48.094;7.970;2023-05-15T13:03:05;21.20;1.00
2409;DHT22;8463;48.094;7.970;2023-05-15T13:05:41;21.70;1.00
2409;DHT22;8463;48.094;7.970;2023-05-15T13:08:14;21.90;1.00
2409;DHT22;8463;48.094;7.970;2023-05-15T13:10:39;21.80;1.00
2409;DHT22;8463;48.094;7.970;2023-05-15T13:13:05;21.40;1.00
2409;DHT22;8463;48.094;7.970;2023-05-15T13:18:10;21.10;1.00
2409;DHT22;8463;48.094;7.970;2023-05-15T13:21:02;20.70;1.00
2409;DHT22;8463;48.094;7.970;2023-05-15T13:23:28;21.00;1.00
2409;DHT22;8463;48.094;7.970;2023-05-15T13:25:53;21.10;1.00
2409;DHT22;8463;48.094;7.970;2023-05-15T13:28:22;21.50;1.00
2409;DHT22;8463;48.094;7.970;2023-05-15T13:30:48;21.20;1.00
2409;DHT22;8463;48.094;7.970;2023-05-15T13:33:13;21.20;1.00
2409;DHT22;8463;48.094;7.970;2023-05-15T13:35:40;21.20;1.00
2409;DHT22;8463;48.094;7.970;2023-05-15T13:38:07;20.50;1.00
2409;DHT22;8463;48.094;7.970;2023-05-15T13:40:37;20.00;1.00
2409;DHT22;8463;48.094;7.970;2023-05-15T13:45:30;20.10;1.00
2409;DHT22;8463;48.094;7.970;2023-05-15T13:47:56;20.20;1.00
2409;DHT22;8463;48.094;7.970;2023-05-15T13:50:28;20.40;1.00
2409;DHT22;8463;48.094;7.970;2023-05-15T13:52:53;20.50;1.00
2409;DHT22;8463;48.094;7.970;2023-05-15T13:55:26;20.70;1.00
2409;DHT22;8463;48.094;7.970;2023-05-15T13:57:51;20.40;1.00
2409;DHT22;8463;48.094;7.970;2023-05-15T14:00:17;20.30;1.00
2409;DHT22;8463;48.094;7.970;2023-05-15T14:05:18;20.30;1.00
2409;DHT22;8463;48.094;7.970;2023-05-15T14:07:44;20.70;1.00
2409;DHT22;8463;48.094;7.970;2023-05-15T14:10:17;20.60;1.00
2409;DHT22;8463;48.094;7.970;2023-05-15T14:12:42;20.60;1.00
2409;DHT22;8463;48.094;7.970;2023-05-15T14:15:08;19.60;1.00
2409;DHT22;8463;48.094;7.970;2023-05-15T14:17:37;19.20;1.00
2409;DHT22;8463;48.094;7.970;2023-05-15T14:20:02;19.20;1.00
2409;DHT22;8463;48.094;7.970;2023-05-15T14:22:31;18.60;1.00
2409;DHT22;8463;48.094;7.970;2023-05-15T14:25:04;18.50;1.00
2409;DHT22;8463;48.094;7.970;2023-05-15T14:27:30;18.20;1.00
2409;DHT22;8463;48.094;7.970;2023-05-15T14:29:56;18.00;1.00
2409;DHT22;8463;48.094;7.970;2023-05-15T14:32:24;17.90;1.00
2409;DHT22;8463;48.094;7.970;2023-05-15T14:34:49;17.90;1.00
2409;DHT22;8463;48.094;7.970;2023-05-15T14:37:16;17.80;1.00
2409;DHT22;8463;48.094;7.970;2023-05-15T14:39:42;17.70;1.00
2409;DHT22;8463;48.094;7.970;2023-05-15T14:42:10;17.50;1.00
2409;DHT22;8463;48.094;7.970;2023-05-15T14:44:36;17.50;1.00
2409;DHT22;8463;48.094;7.970;2023-05-15T14:47:11;17.40;1.00
2409;DHT22;8463;48.094;7.970;2023-05-15T14:49:39;17.30;1.00
2409;DHT22;8463;48.094;7.970;2023-05-15T14:52:07;17.00;1.00
2409;DHT22;8463;48.094;7.970;2023-05-15T14:54:33;17.00;1.00
2409;DHT22;8463;48.094;7.970;2023-05-15T14:57:03;16.80;1.00
2409;DHT22;8463;48.094;7.970;2023-05-15T14:59:29;16.80;1.00
2409;DHT22;8463;48.094;7.970;2023-05-15T15:01:54;16.60;1.00
2409;DHT22;8463;48.094;7.970;2023-05-15T15:04:20;16.60;1.00
2409;DHT22;8463;48.094;7.970;2023-05-15T15:06:46;16.60;1.00
2409;DHT22;8463;48.094;7.970;2023-05-15T15:09:18;16.80;1.00
2409;DHT22;8463;48.094;7.970;2023-05-15T15:14:10;17.00;1.00
2409;DHT22;8463;48.094;7.970;2023-05-15T15:16:36;17.10;1.00
2409;DHT22;8463;48.094;7.970;2023-05-15T15:19:04;17.20;1.00
2409;DHT22;8463;48.094;7.970;2023-05-15T15:21:30;17.30;1.00
2409;DHT22;8463;48.094;7.970;2023-05-15T15:23:56;17.40;1.00
2409;DHT22;8463;48.094;7.970;2023-05-15T15:26:22;17.40;1.00
2409;DHT22;8463;48.094;7.970;2023-05-15T15:28:47;17.50;1.00
2409;DHT22;8463;48.094;7.970;2023-05-15T15:31:13;17.40;1.00
2409;DHT22;8463;48.094;7.970;2023-05-15T15:33:39;17.50;1.00
2409;DHT22;8463;48.094;7.970;2023-05-15T15:36:05;17.60;1.00
2409;DHT22;8463;48.094;7.970;2023-05-15T15:38:32;17.60;1.00
2409;DHT22;8463;48.094;7.970;2023-05-15T15:40:57;17.70;1.00
2409;DHT22;8463;48.094;7.970;2023-05-15T15:43:23;17.60;1.00
2409;DHT22;8463;48.094;7.970;2023-05-15T15:45:49;17.60;1.00
2409;DHT22;8463;48.094;7.970;2023-05-15T15:48:15;17.60;1.00
2409;DHT22;8463;48.094;7.970;2023-05-15T15:50:40;17.40;1.00
2409;DHT22;8463;48.094;7.970;2023-05-15T15:53:09;17.40;1.00
2409;DHT22;8463;48.094;7.970;2023-05-15T15:55:34;17.40;1.00
2409;DHT22;8463;48.094;7.970;2023-05-15T15:58:00;17.30;1.00
2409;DHT22;8463;48.094;7.970;2023-05-15T16:00:26;17.10;1.00
2409;DHT22;8463;48.094;7.970;2023-05-15T16:02:51;17.10;1.00
2409;DHT22;8463;48.094;7.970;2023-05-15T16:05:17;16.80;1.00
2409;DHT22;8463;48.094;7.970;2023-05-15T16:07:45;16.90;1.00
2409;DHT22;8463;48.094;7.970;2023-05-15T16:10:12;17.00;1.00
2409;DHT22;8463;48.094;7.970;2023-05-15T16:12:38;17.00;1.00
2409;DHT22;8463;48.094;7.970;2023-05-15T16:15:05;16.90;1.00
2409;DHT22;8463;48.094;7.970;2023-05-15T16:17:32;16.80;1.00
2409;DHT22;8463;48.094;7.970;2023-05-15T16:19:58;16.80;1.00
2409;DHT22;8463;48.094;7.970;2023-05-15T16:22:24;16.80;1.00
2409;DHT22;8463;48.094;7.970;2023-05-15T16:24:50;16.90;1.00
2409;DHT22;8463;48.094;7.970;2023-05-15T16:27:16;16.90;1.00
2409;DHT22;8463;48.094;7.970;2023-05-15T16:29:42;16.90;1.00
2409;DHT22;8463;48.094;7.970;2023-05-15T16:32:13;16.90;1.00
2409;DHT22;8463;48.094;7.970;2023-05-15T16:34:39;16.50;1.00
2409;DHT22;8463;48.094;7.970;2023-05-15T16:37:05;16.30;1.00
2409;DHT22;8463;48.094;7.970;2023-05-15T16:39:34;16.10;1.00
2409;DHT22;8463;48.094;7.970;2023-05-15T16:42:06;16.00;1.00
2409;DHT22;8463;48.094;7.970;2023-05-15T16:44:31;16.00;1.00
2409;DHT22;8463;48.094;7.970;2023-05-15T16:46:58;15.80;1.00
2409;DHT22;8463;48.094;7.970;2023-05-15T16:49:27;15.60;1.00
2409;DHT22;8463;48.094;7.970;2023-05-15T16:51:53;15.80;1.00
2409;DHT22;8463;48.094;7.970;2023-05-15T16:54:19;16.00;1.00
2409;DHT22;8463;48.094;7.970;2023-05-15T16:56:51;16.20;1.00
2409;DHT22;8463;48.094;7.970;2023-05-15T16:59:20;16.30;1.00
2409;DHT22;8463;48.094;7.970;2023-05-15T17:01:53;16.50;1.00
2409;DHT22;8463;48.094;7.970;2023-05-15T17:04:18;16.70;1.00